Time;durP1;ratioP1;P1;durP2;ratioP2;P2;SDS_P1;SDS_P2;PMS_P1;PMS_P2;Temp;Humidity;BMP_temperature;BMP_pressure;BME280_temperature;BME280_humidity;BME280_pressure;Samples;Min_cycle;Max_cycle;Signal;HPM_P1;HPM_P2
2024/03/28 00:02:07;;;;;;;0.20;0.20;;;;;;;11.66;76.83;100056.00;4935406;29;20031;-84
2024/03/28 00:04:33;;;;;;;0.20;0.20;;;;;;;11.57;77.21;100053.16;4935299;29;20457;-85
2024/03/28 00:06:58;;;;;;;0.20;0.20;;;;;;;11.60;76.80;100059.00;4967409;28;20428;-84
2024/03/28 00:09:24;;;;;;;0.20;0.20;;;;;;;11.65;76.76;100067.28;4967426;28;20055;-85
2024/03/28 00:11:51;;;;;;;0.20;0.20;;;;;;;11.52;77.05;100035.31;4967341;28;20027;-84
2024/03/28 00:14:17;;;;;;;0.20;0.20;;;;;;;11.68;77.01;100056.72;4951531;29;20028;-85
2024/03/28 00:16:42;;;;;;;0.20;0.20;;;;;;;11.57;77.73;100048.81;4951280;28;20118;-85
2024/03/28 00:19:08;;;;;;;0.20;0.20;;;;;;;11.52;77.15;100043.09;4950879;28;20039;-84
2024/03/28 00:21:35;;;;;;;0.20;0.20;;;;;;;11.32;76.98;100017.59;4967166;28;20027;-84
2024/03/28 00:24:00;;;;;;;0.20;0.20;;;;;;;11.41;76.99;100041.16;4951354;29;20074;-85
2024/03/28 00:26:26;;;;;;;0.20;0.20;;;;;;;11.31;78.48;100036.66;4951394;28;20065;-84
2024/03/28 00:28:51;;;;;;;0.20;0.20;;;;;;;11.34;78.49;100054.56;4951220;29;20112;-84
2024/03/28 00:31:17;;;;;;;0.20;0.20;;;;;;;11.30;78.21;100035.78;4951333;29;20102;-85
2024/03/28 00:33:43;;;;;;;0.20;0.20;;;;;;;11.31;77.95;100047.00;4967116;28;20031;-84
2024/03/28 00:36:08;;;;;;;0.20;0.20;;;;;;;11.32;77.72;100048.66;4935236;29;20485;-84
2024/03/28 00:38:33;;;;;;;0.20;0.20;;;;;;;11.19;77.82;100039.03;4951169;29;20051;-85
2024/03/28 00:40:59;;;;;;;0.20;0.20;;;;;;;11.22;78.21;100037.19;4950931;29;20087;-84
2024/03/28 00:43:25;;;;;;;0.20;0.20;;;;;;;11.17;78.21;100027.94;4951185;29;20110;-83
2024/03/28 00:45:50;;;;;;;0.20;0.20;;;;;;;11.25;78.12;100031.81;4935264;29;20086;-84
2024/03/28 00:48:17;;;;;;;0.20;0.20;;;;;;;11.26;78.15;100020.53;4934783;29;20516;-84
2024/03/28 00:50:51;;;;;;;0.20;0.20;;;;;;;11.23;78.20;100018.16;4935112;29;20520;-84
2024/03/28 00:53:17;;;;;;;0.20;0.20;;;;;;;11.19;78.27;100007.97;4965762;28;20169;-84
2024/03/28 00:55:42;;;;;;;0.20;0.20;;;;;;;11.30;78.57;100014.25;4951005;28;20493;-84
2024/03/28 00:58:08;;;;;;;0.20;0.20;;;;;;;11.33;78.22;100003.72;4935162;29;20425;-85
2024/03/28 01:00:33;;;;;;;0.10;0.10;;;;;;;11.26;78.02;99994.66;4935062;29;20398;-84
2024/03/28 01:02:59;;;;;;;0.20;0.20;;;;;;;11.27;78.49;99997.13;4950582;29;20405;-84
2024/03/28 01:05:25;;;;;;;0.20;0.20;;;;;;;11.32;78.45;99994.28;4951031;29;20529;-84
2024/03/28 01:07:50;;;;;;;0.20;0.20;;;;;;;11.37;78.57;99974.94;4967062;28;20023;-84
2024/03/28 01:10:16;;;;;;;0.20;0.20;;;;;;;11.41;78.02;99970.41;4950903;29;20086;-84
2024/03/28 01:12:42;;;;;;;0.20;0.20;;;;;;;11.38;77.88;99979.19;4934930;29;20035;-83
2024/03/28 01:15:07;;;;;;;0.20;0.20;;;;;;;11.34;78.00;99967.34;4950646;28;20039;-84
2024/03/28 01:17:33;;;;;;;0.20;0.20;;;;;;;11.38;78.44;99960.22;4934634;29;20023;-84
2024/03/28 01:19:58;;;;;;;0.20;0.20;;;;;;;11.34;78.08;99956.16;4950818;28;20441;-84
2024/03/28 01:22:24;;;;;;;0.20;0.20;;;;;;;11.46;78.50;99968.34;4950663;29;20087;-84
2024/03/28 01:24:49;;;;;;;0.20;0.20;;;;;;;11.29;78.54;99937.47;4934927;29;20509;-84
2024/03/28 01:27:15;;;;;;;0.20;0.20;;;;;;;11.43;77.95;99953.84;4950454;29;20027;-84
2024/03/28 01:29:40;;;;;;;0.20;0.20;;;;;;;11.37;77.54;99954.22;4934625;29;20034;-84
2024/03/28 01:32:06;;;;;;;0.20;0.20;;;;;;;11.41;77.87;99970.41;4968098;28;20031;-84
2024/03/28 01:34:32;;;;;;;0.20;0.20;;;;;;;11.37;77.69;99969.75;4954241;29;20038;-84
2024/03/28 01:36:57;;;;;;;0.20;0.20;;;;;;;11.37;78.54;99987.03;4954156;29;20035;-84
2024/03/28 01:39:23;;;;;;;0.20;0.20;;;;;;;11.35;78.85;99994.09;4969930;28;20066;-84
2024/03/28 01:41:52;;;;;;;0.20;0.20;;;;;;;11.34;79.38;99979.47;4953750;29;20104;-84
2024/03/28 01:44:19;;;;;;;0.20;0.20;;;;;;;11.37;78.92;99974.09;4953996;28;20027;-85
2024/03/28 01:46:45;;;;;;;0.20;0.20;;;;;;;11.28;78.01;99953.94;4953621;28;20032;-84
2024/03/28 01:49:12;;;;;;;0.20;0.20;;;;;;;11.13;78.39;99935.88;4969450;28;20529;-84
2024/03/28 01:51:38;;;;;;;0.20;0.20;;;;;;;11.37;78.54;99976.69;4970084;28;20039;-84
2024/03/28 01:54:04;;;;;;;0.20;0.20;;;;;;;11.22;78.80;99960.34;4953591;29;20023;-85
2024/03/28 01:56:30;;;;;;;0.20;0.20;;;;;;;11.11;79.82;99942.91;4953792;29;20061;-84
2024/03/28 01:58:56;;;;;;;0.20;0.20;;;;;;;11.34;79.64;99990.66;4937753;29;20078;-84
2024/03/28 02:01:22;;;;;;;0.20;0.20;;;;;;;11.38;79.32;99993.88;4953351;29;20047;-84
2024/03/28 02:03:47;;;;;;;0.20;0.20;;;;;;;11.39;79.28;99987.78;4937736;29;20054;-84
2024/03/28 02:06:13;;;;;;;0.20;0.20;;;;;;;11.39;79.22;99973.06;4953928;29;20476;-84
2024/03/28 02:08:39;;;;;;;0.20;0.20;;;;;;;11.46;79.18;99978.69;4937465;29;20031;-84
2024/03/28 02:11:04;;;;;;;0.20;0.20;;;;;;;11.28;79.07;99943.59;4953507;29;20035;-84
2024/03/28 02:13:30;;;;;;;0.20;0.20;;;;;;;11.45;78.88;99967.50;4937256;29;20085;-84
2024/03/28 02:15:55;;;;;;;0.20;0.20;;;;;;;11.48;79.53;99950.94;4968870;28;20090;-84
2024/03/28 02:18:21;;;;;;;0.20;0.20;;;;;;;11.48;79.14;99946.59;4969541;28;20027;-84
2024/03/28 02:20:47;;;;;;;0.20;0.20;;;;;;;11.51;79.18;99944.75;4953287;29;20037;-84
2024/03/28 02:23:16;;;;;;;0.20;0.20;;;;;;;11.46;79.31;99942.44;4937087;29;20027;-84
2024/03/28 02:25:42;;;;;;;0.20;0.20;;;;;;;11.43;79.02;99937.47;4937230;29;20031;-84
2024/03/28 02:28:08;;;;;;;0.20;0.20;;;;;;;11.40;79.58;99955.75;4953250;29;20027;-84
2024/03/28 02:30:34;;;;;;;0.20;0.20;;;;;;;11.47;78.91;99954.47;4952738;28;20034;-84
2024/03/28 02:32:59;;;;;;;0.20;0.20;;;;;;;11.40;79.00;99953.19;4969481;28;20456;-84
2024/03/28 02:35:25;;;;;;;0.20;0.20;;;;;;;11.46;78.89;99953.63;4969015;28;20117;-84
2024/03/28 02:37:51;;;;;;;0.20;0.20;;;;;;;11.48;79.04;99956.94;4952663;29;20031;-84
2024/03/28 02:40:16;;;;;;;0.20;0.20;;;;;;;11.53;78.71;99966.22;4969077;28;20031;-84
2024/03/28 02:42:42;;;;;;;0.20;0.20;;;;;;;11.57;78.50;99965.06;4951657;28;20031;-84
2024/03/28 02:45:08;;;;;;;0.20;0.20;;;;;;;11.57;78.53;99952.13;4952366;29;20027;-84
2024/03/28 02:47:33;;;;;;;0.20;0.20;;;;;;;11.53;77.87;99955.84;4952812;29;20030;-84
2024/03/28 02:49:59;;;;;;;0.20;0.20;;;;;;;11.55;78.01;99959.16;4968514;28;20038;-84
2024/03/28 02:52:25;;;;;;;0.20;0.20;;;;;;;11.56;78.31;99953.88;4952732;28;20043;-84
2024/03/28 02:54:50;;;;;;;0.20;0.20;;;;;;;11.56;77.92;99942.69;4952635;28;20035;-84
2024/03/28 02:57:23;;;;;;;0.20;0.20;;;;;;;11.56;78.10;99940.94;4968292;28;20034;-84
2024/03/28 03:00:13;;;;;;;0.20;0.20;;;;;;;11.59;79.07;99952.84;4936322;29;20049;-84
2024/03/28 03:02:39;;;;;;;0.20;0.20;;;;;;;11.56;78.73;99953.06;4951931;29;20046;-84
2024/03/28 03:05:05;;;;;;;0.20;0.20;;;;;;;11.57;78.69;99958.13;4936426;29;20027;-85
2024/03/28 03:07:31;;;;;;;0.20;0.20;;;;;;;11.49;78.70;99942.25;4952313;29;20184;-84
2024/03/28 03:09:56;;;;;;;0.20;0.20;;;;;;;11.59;78.76;99951.09;4936389;29;20122;-83
2024/03/28 03:12:22;;;;;;;0.20;0.20;;;;;;;11.62;78.55;99937.13;4968772;28;20127;-84
2024/03/28 03:14:51;;;;;;;0.20;0.20;;;;;;;11.56;78.12;99927.16;4951837;29;20469;-85
2024/03/28 03:17:16;;;;;;;0.20;0.20;;;;;;;11.52;78.04;99934.28;4952077;28;20024;-84
2024/03/28 03:19:42;;;;;;;0.20;0.20;;;;;;;11.62;77.89;99943.13;4952223;28;20036;-84
2024/03/28 03:22:08;;;;;;;0.20;0.20;;;;;;;11.68;77.78;99947.06;4951703;29;20494;-84
2024/03/28 03:24:35;;;;;;;0.20;0.20;;;;;;;11.78;77.93;99948.16;4952115;28;20525;-84
2024/03/28 03:27:15;;;;;;;0.20;0.20;;;;;;;11.50;78.16;99907.63;4967957;28;20039;-83
2024/03/28 03:35:10;;;;;;;0.20;0.20;;;;;;;11.74;77.93;99934.56;4965525;28;20103;-84
2024/03/28 03:37:36;;;;;;;0.20;0.20;;;;;;;11.76;77.89;99945.66;4953138;28;20032;-84
2024/03/28 03:40:04;;;;;;;0.20;0.20;;;;;;;11.67;79.02;99945.41;4951547;29;20178;-84
2024/03/28 03:42:30;;;;;;;0.20;0.20;;;;;;;11.74;78.52;99957.06;4951745;29;20492;-84
2024/03/28 03:44:55;;;;;;;0.20;0.20;;;;;;;11.77;78.66;99957.69;4967639;28;20062;-84
2024/03/28 03:47:21;;;;;;;0.20;0.20;;;;;;;11.73;78.04;99939.84;4951539;29;20070;-85
2024/03/28 03:49:46;;;;;;;0.20;0.20;;;;;;;11.61;77.72;99904.38;4951703;29;20059;-84
2024/03/28 03:52:15;;;;;;;0.20;0.20;;;;;;;11.84;77.56;99952.16;4935863;29;20049;-84
2024/03/28 03:54:40;;;;;;;0.20;0.20;;;;;;;11.76;77.65;99966.38;4951462;28;20032;-85
2024/03/28 03:57:06;;;;;;;0.20;0.20;;;;;;;11.83;77.69;99956.50;4935200;29;20031;-82
2024/03/28 03:59:32;;;;;;;0.20;0.20;;;;;;;11.84;75.99;99897.72;4968010;28;20038;-81
2024/03/28 04:01:58;;;;;;;0.20;0.20;;;;;;;11.80;76.24;99894.50;4967094;28;20023;-82
2024/03/28 04:04:24;;;;;;;0.20;0.20;;;;;;;11.89;76.36;99929.34;4948621;28;20523;-83
2024/03/28 04:06:49;;;;;;;0.20;0.20;;;;;;;11.87;76.34;99921.66;4934699;29;20425;-83
2024/03/28 04:09:15;;;;;;;0.20;0.20;;;;;;;11.86;76.40;99951.13;4965833;28;20035;-83
2024/03/28 04:11:40;;;;;;;0.20;0.20;;;;;;;11.76;76.92;99913.72;4966369;28;20170;-83
2024/03/28 04:14:06;;;;;;;0.20;0.20;;;;;;;11.76;76.53;99899.00;4950825;29;20028;-83
2024/03/28 04:16:31;;;;;;;0.20;0.20;;;;;;;11.67;77.16;99878.88;4950578;29;20429;-83
2024/03/28 04:18:57;;;;;;;0.20;0.20;;;;;;;11.58;77.80;99896.78;4951189;29;20499;-84
2024/03/28 04:21:23;;;;;;;0.20;0.20;;;;;;;11.58;77.55;99914.91;4935198;29;20118;-84
2024/03/28 04:23:48;;;;;;;0.20;0.20;;;;;;;11.62;77.42;99919.81;4950953;29;20470;-83
2024/03/28 04:26:14;;;;;;;0.20;0.20;;;;;;;11.64;77.81;99899.81;4950568;29;20110;-84
2024/03/28 04:28:39;;;;;;;0.20;0.20;;;;;;;11.65;77.22;99908.41;4950948;29;20031;-82
2024/03/28 04:31:05;;;;;;;0.20;0.20;;;;;;;11.76;77.35;99950.00;4950936;29;20095;-82
2024/03/28 04:33:31;;;;;;;0.20;0.20;;;;;;;11.67;78.81;99972.16;4967201;28;20566;-85
2024/03/28 04:35:57;;;;;;;0.20;0.20;;;;;;;11.69;78.46;99962.53;4934836;29;20035;-84
2024/03/28 04:38:22;;;;;;;0.20;0.20;;;;;;;11.68;78.40;100017.88;4966555;28;20047;-87
2024/03/28 04:40:48;;;;;;;0.20;0.20;;;;;;;11.45;79.91;100166.94;4951205;29;20042;-87
2024/03/28 04:43:13;;;;;;;0.20;0.20;;;;;;;11.36;79.80;100288.38;4950732;29;20038;-86
2024/03/28 04:45:39;;;;;;;0.20;0.20;;;;;;;11.25;82.67;100301.13;4950833;29;20034;-87
2024/03/28 04:48:05;;;;;;;0.20;0.20;;;;;;;11.13;85.00;100271.59;4951329;29;20035;-88
2024/03/28 04:50:30;;;;;;;0.20;0.20;;;;;;;11.10;85.88;100218.22;4951275;29;20036;-89
2024/03/28 04:52:56;;;;;;;0.20;0.20;;;;;;;11.14;86.33;100188.66;4967928;28;20031;-90
2024/03/28 04:55:21;;;;;;;0.20;0.20;;;;;;;11.25;85.87;100182.00;4935401;29;20035;-88
2024/03/28 04:57:47;;;;;;;0.20;0.20;;;;;;;11.15;86.45;100167.00;4951020;29;20357;-90
2024/03/28 05:00:13;;;;;;;0.20;0.20;;;;;;;11.20;86.89;100141.66;4935458;29;20031;-91
2024/03/28 05:02:38;;;;;;;0.20;0.20;;;;;;;11.37;87.08;100151.03;4951485;29;20028;-89
2024/03/28 05:05:05;;;;;;;0.20;0.20;;;;;;;11.38;87.45;100144.94;4951186;28;20030;-88
2024/03/28 05:07:31;;;;;;;0.20;0.20;;;;;;;11.37;87.08;100125.13;4951361;29;20031;-90
2024/03/28 05:09:56;;;;;;;0.20;0.20;;;;;;;11.40;87.27;100144.81;4954906;29;20321;-87
2024/03/28 05:12:22;;;;;;;0.20;0.20;;;;;;;11.42;88.03;100138.66;4938294;28;20039;-88
2024/03/28 05:14:48;;;;;;;0.20;0.20;;;;;;;11.46;87.34;100134.13;4939164;29;20027;-89
2024/03/28 05:17:14;;;;;;;0.20;0.20;;;;;;;11.55;87.23;100118.00;4954753;29;20075;-88
2024/03/28 05:19:39;;;;;;;0.20;0.20;;;;;;;11.50;87.50;100088.94;4971287;28;20034;-87
2024/03/28 05:22:07;;;;;;;0.20;0.20;;;;;;;11.58;87.44;100057.41;4968019;28;20549;-89
2024/03/28 05:24:32;;;;;;;0.20;0.20;;;;;;;11.49;87.86;100048.44;4939111;29;20071;-87
2024/03/28 05:26:58;;;;;;;0.20;0.20;;;;;;;11.41;88.02;100053.28;4954629;29;20027;-88
2024/03/28 05:29:23;;;;;;;0.20;0.20;;;;;;;11.43;88.06;100046.25;4971051;28;20027;-90
2024/03/28 05:31:49;;;;;;;0.20;0.20;;;;;;;11.47;87.38;100063.25;4960077;28;20038;-91
2024/03/28 05:34:15;;;;;;;0.20;0.20;;;;;;;11.50;87.60;100078.59;4955969;28;20521;-81
2024/03/28 05:36:41;;;;;;;0.20;0.20;;;;;;;11.49;87.90;100079.53;4953517;29;20066;-79
2024/03/28 05:39:07;;;;;;;0.20;0.20;;;;;;;11.64;87.45;100107.09;4969731;28;20101;-90
2024/03/28 05:41:33;;;;;;;0.20;0.20;;;;;;;11.64;87.49;100127.00;4954312;29;20031;-89
2024/03/28 05:43:59;;;;;;;0.20;0.20;;;;;;;11.70;86.61;100130.03;4956003;29;20086;-90
2024/03/28 05:46:24;;;;;;;0.20;0.20;;;;;;;11.66;86.96;100128.56;4926676;29;20069;-91
2024/03/28 05:48:50;;;;;;;0.20;0.20;;;;;;;11.63;86.92;100159.00;4938154;29;20019;-90
2024/03/28 05:51:16;;;;;;;0.20;0.20;;;;;;;11.53;87.70;100144.94;4954168;29;20146;-88
2024/03/28 05:53:45;;;;;;;0.20;0.20;;;;;;;11.61;87.80;100151.34;4951099;29;20074;-87
2024/03/28 05:56:11;;;;;;;0.20;0.20;;;;;;;11.64;88.53;100169.28;4952053;28;20176;-89
2024/03/28 05:58:37;;;;;;;0.20;0.20;;;;;;;11.62;88.16;100150.41;4957896;28;20066;-84
2024/03/28 06:01:04;;;;;;;0.20;0.20;;;;;;;11.61;88.06;100159.09;4954167;29;20036;-87
2024/03/28 06:03:29;;;;;;;0.20;0.20;;;;;;;11.67;87.45;100147.53;4922179;29;20027;-91
2024/03/28 06:05:55;;;;;;;0.20;0.20;;;;;;;11.73;87.42;100168.72;4954144;28;20030;-85
2024/03/28 06:08:20;;;;;;;0.20;0.20;;;;;;;11.73;87.15;100184.25;4969175;28;20086;-90
2024/03/28 06:10:46;;;;;;;0.20;0.20;;;;;;;11.80;86.73;100174.41;4953807;29;20031;-87
2024/03/28 06:13:11;;;;;;;0.20;0.20;;;;;;;11.72;86.33;100146.31;4969198;28;20031;-89
2024/03/28 06:15:37;;;;;;;0.20;0.20;;;;;;;11.70;86.98;100170.66;4937805;29;20068;-83
2024/03/28 06:18:02;;;;;;;0.20;0.20;;;;;;;11.53;86.62;100192.41;4936160;29;20038;-85
2024/03/28 06:20:28;;;;;;;0.20;0.20;;;;;;;11.61;87.00;100213.50;4952994;29;20042;-83
2024/03/28 06:22:53;;;;;;;0.20;0.20;;;;;;;11.57;88.00;100248.28;4953293;28;20027;-83
2024/03/28 06:25:19;;;;;;;0.20;0.20;;;;;;;11.51;87.72;100206.38;4952294;28;20538;-82
2024/03/28 06:27:45;;;;;;;0.20;0.20;;;;;;;11.60;87.35;100209.25;4951698;29;20540;-82
2024/03/28 06:30:11;;;;;;;0.20;0.20;;;;;;;11.69;88.10;100244.97;4953330;28;20493;-88
2024/03/28 06:32:36;;;;;;;0.20;0.20;;;;;;;11.78;88.06;100259.97;4952775;29;20478;-92
2024/03/28 06:35:02;;;;;;;0.20;0.20;;;;;;;11.68;87.91;100250.22;4969226;28;20114;-89
2024/03/28 06:37:27;;;;;;;0.20;0.20;;;;;;;11.81;88.13;100258.16;4953019;29;20070;-90
2024/03/28 06:39:54;;;;;;;0.20;0.20;;;;;;;11.83;87.70;100271.88;4968833;28;20043;-86
2024/03/28 06:42:20;;;;;;;0.20;0.20;;;;;;;11.80;87.67;100272.88;4936505;28;20062;-90
2024/03/28 06:44:47;;;;;;;0.20;0.20;;;;;;;11.85;88.07;100270.00;4952913;29;20067;-87
2024/03/28 06:47:13;;;;;;;0.20;0.20;;;;;;;11.86;87.63;100256.13;4970749;28;20432;-86
2024/03/28 06:49:39;;;;;;;0.20;0.20;;;;;;;11.97;86.40;100264.06;4969228;28;20592;-88
2024/03/28 06:52:05;;;;;;;0.20;0.20;;;;;;;12.14;86.29;100263.91;4952647;29;20070;-89
2024/03/28 06:54:30;;;;;;;0.20;0.20;;;;;;;12.32;86.30;100285.28;4951949;28;20072;-91
2024/03/28 06:56:56;;;;;;;0.20;0.20;;;;;;;12.23;85.30;100271.13;4950431;29;20485;-89
2024/03/28 06:59:21;;;;;;;0.20;0.20;;;;;;;12.33;85.24;100292.97;4951817;29;20082;-91
2024/03/28 07:01:47;;;;;;;0.20;0.20;;;;;;;12.38;85.51;100292.66;4968648;28;20054;-89
2024/03/28 07:04:12;;;;;;;0.20;0.20;;;;;;;12.50;84.27;100301.47;4953554;28;20027;-91
2024/03/28 07:06:38;;;;;;;0.20;0.20;;;;;;;12.63;84.35;100295.41;4952639;29;20035;-92
2024/03/28 07:09:04;;;;;;;0.20;0.20;;;;;;;12.63;83.23;100261.69;4952375;28;20043;-85
2024/03/28 07:11:29;;;;;;;0.30;0.30;;;;;;;12.90;83.02;100286.81;4952740;28;20521;-89
2024/03/28 07:13:55;;;;;;;0.20;0.20;;;;;;;12.97;82.33;100284.66;4951151;29;20031;-83
2024/03/28 07:16:20;;;;;;;0.20;0.20;;;;;;;13.00;83.35;100297.47;4952534;29;20031;-85
2024/03/28 07:18:46;;;;;;;0.20;0.20;;;;;;;13.10;81.77;100304.56;4951747;29;20034;-87
2024/03/28 07:21:12;;;;;;;0.20;0.20;;;;;;;13.25;80.37;100326.13;4951288;29;20027;-85
2024/03/28 07:23:41;;;;;;;0.20;0.20;;;;;;;13.44;80.87;100323.16;4968742;28;20104;-92
2024/03/28 07:26:09;;;;;;;0.20;0.20;;;;;;;13.43;80.01;100301.56;4935792;29;20027;-81
2024/03/28 07:28:35;;;;;;;0.20;0.20;;;;;;;13.46;79.18;100310.91;4953355;28;20038;-93
2024/03/28 07:31:00;;;;;;;0.25;0.25;;;;;;;13.51;79.39;100318.41;4907791;29;20035;-89
2024/03/28 07:33:26;;;;;;;0.20;0.20;;;;;;;13.55;78.36;100314.66;4942769;29;20031;-90
2024/03/28 07:35:51;;;;;;;0.20;0.20;;;;;;;13.58;78.57;100314.47;4932781;29;20098;-89
2024/03/28 07:38:17;;;;;;;0.20;0.20;;;;;;;13.68;78.50;100320.75;4950665;29;21233;-90
2024/03/28 07:40:47;;;;;;;0.20;0.20;;;;;;;13.65;76.88;100292.31;4947916;29;20409;-90
2024/03/28 07:43:13;;;;;;;0.20;0.20;;;;;;;13.89;76.41;100337.50;4953815;29;20027;-86
2024/03/28 07:45:39;;;;;;;0.20;0.20;;;;;;;13.97;76.93;100337.81;4956668;29;20038;-91
2024/03/28 07:48:06;;;;;;;0.20;0.20;;;;;;;14.06;76.95;100326.78;4953073;28;20437;-92
2024/03/28 07:50:32;;;;;;;0.20;0.20;;;;;;;14.29;76.06;100340.81;4952956;29;20031;-92
2024/03/28 07:52:57;;;;;;;0.20;0.20;;;;;;;14.46;75.39;100344.91;4965678;28;20031;-88
2024/03/28 07:55:23;;;;;;;0.20;0.20;;;;;;;14.51;73.11;100345.41;4949673;28;20065;-87
2024/03/28 07:57:49;;;;;;;0.20;0.20;;;;;;;14.78;73.43;100357.44;4947863;29;20031;-89
2024/03/28 08:00:16;;;;;;;0.20;0.20;;;;;;;14.93;72.93;100358.94;4950380;29;20039;-93
2024/03/28 08:02:43;;;;;;;0.20;0.20;;;;;;;15.09;73.15;100359.50;4953609;28;20042;-86
2024/03/28 08:05:08;;;;;;;0.20;0.20;;;;;;;15.26;71.97;100349.66;4956389;28;20023;-85
2024/03/28 08:07:34;;;;;;;0.20;0.20;;;;;;;15.44;71.68;100366.56;4959332;28;20035;-92
2024/03/28 08:09:59;;;;;;;0.20;0.20;;;;;;;15.58;72.88;100370.75;4938462;29;20027;-86
2024/03/28 08:12:25;;;;;;;0.20;0.20;;;;;;;15.68;73.02;100390.00;4950395;29;20086;-85
2024/03/28 08:14:51;;;;;;;0.20;0.20;;;;;;;15.75;73.40;100378.19;4950052;29;20035;-85
2024/03/28 08:17:16;;;;;;;0.20;0.20;;;;;;;15.88;72.56;100378.94;4936845;29;20099;-87
2024/03/28 08:19:42;;;;;;;0.20;0.20;;;;;;;15.94;72.99;100372.44;4950984;29;20043;-92
2024/03/28 08:22:10;;;;;;;0.20;0.20;;;;;;;16.02;72.87;100370.06;4954647;29;20023;-90
2024/03/28 08:24:37;;;;;;;0.20;0.20;;;;;;;16.09;72.08;100376.47;4952396;29;20521;-91
2024/03/28 08:27:04;;;;;;;0.20;0.20;;;;;;;16.19;71.13;100382.66;4921207;29;20035;-91
2024/03/28 08:29:29;;;;;;;0.20;0.20;;;;;;;16.38;71.56;100391.69;4951133;29;20027;-90
2024/03/28 08:31:56;;;;;;;0.20;0.20;;;;;;;16.44;72.19;100389.47;4937564;29;20557;-94
2024/03/28 08:34:22;;;;;;;0.20;0.20;;;;;;;16.49;70.29;100386.47;4955738;28;20498;-91
2024/03/28 08:36:47;;;;;;;0.20;0.20;;;;;;;16.62;70.43;100395.03;4935722;29;20062;-92
2024/03/28 08:39:13;;;;;;;0.20;0.20;;;;;;;16.64;69.53;100378.28;4949614;29;20114;-90
2024/03/28 08:41:40;;;;;;;0.20;0.20;;;;;;;16.61;69.76;100398.56;4937402;29;20019;-92
2024/03/28 08:44:08;;;;;;;0.30;0.30;;;;;;;16.78;70.24;100384.25;4954772;28;20035;-93
2024/03/28 08:46:34;;;;;;;0.20;0.20;;;;;;;16.91;70.31;100398.00;4932664;29;20060;-87
2024/03/28 08:49:00;;;;;;;0.20;0.20;;;;;;;16.84;68.86;100382.00;4954290;29;20035;-90
2024/03/28 08:51:26;;;;;;;0.20;0.20;;;;;;;17.01;69.11;100375.44;4954967;29;20082;-91
2024/03/28 08:53:52;;;;;;;0.20;0.20;;;;;;;17.54;55.90;100390.34;4957893;29;20500;-92
2024/03/28 08:56:20;;;;;;;0.20;0.20;;;;;;;18.00;54.09;100375.16;4953671;28;20035;-87
2024/03/28 08:58:45;;;;;;;0.20;0.20;;;;;;;18.56;49.48;100406.16;4952919;28;20035;-93
2024/03/28 09:01:13;;;;;;;0.20;0.20;;;;;;;18.88;48.80;100403.44;4942323;29;20090;-93
2024/03/28 09:03:39;;;;;;;0.20;0.20;;;;;;;19.08;47.44;100404.31;4941081;29;20103;-92
2024/03/28 09:06:09;;;;;;;0.20;0.20;;;;;;;19.16;47.27;100414.94;4938026;29;20031;-91
2024/03/28 09:08:35;;;;;;;0.20;0.20;;;;;;;19.25;44.24;100394.94;4954039;29;20028;-87
2024/03/28 09:11:01;;;;;;;0.20;0.20;;;;;;;19.30;44.27;100403.25;4956245;28;20105;-92
2024/03/28 09:13:26;;;;;;;0.20;0.20;;;;;;;19.48;47.26;100411.25;4954009;29;20508;-93
2024/03/28 09:15:52;;;;;;;0.20;0.20;;;;;;;19.60;45.44;100399.69;4971439;28;20042;-88
2024/03/28 09:18:17;;;;;;;0.20;0.20;;;;;;;19.69;44.14;100408.53;4945611;29;20043;-95
2024/03/28 09:20:45;;;;;;;0.20;0.20;;;;;;;19.89;45.11;100419.84;4956410;29;20031;-86
2024/03/28 09:23:11;;;;;;;0.20;0.20;;;;;;;19.86;43.92;100410.47;4954009;29;20027;-87
2024/03/28 09:25:36;;;;;;;0.20;0.20;;;;;;;19.77;43.76;100411.28;4953343;28;20509;-89
2024/03/28 09:28:02;;;;;;;0.20;0.20;;;;;;;19.73;43.83;100399.41;4968736;28;20023;-90
2024/03/28 09:30:28;;;;;;;0.20;0.20;;;;;;;20.04;44.59;100413.19;4953180;29;20134;-91
2024/03/28 09:32:54;;;;;;;0.20;0.20;;;;;;;20.17;42.91;100413.72;4955780;28;20090;-88
2024/03/28 09:35:20;;;;;;;0.20;0.20;;;;;;;20.29;41.30;100404.69;4936522;29;20505;-90
2024/03/28 09:37:46;;;;;;;0.20;0.20;;;;;;;20.51;43.24;100421.09;4953553;29;20067;-92
2024/03/28 09:40:13;;;;;;;0.20;0.20;;;;;;;20.19;38.84;100422.28;4953934;28;20525;-91
2024/03/28 09:42:40;;;;;;;0.20;0.20;;;;;;;20.25;40.87;100407.72;4937007;29;20035;-91
2024/03/28 09:45:06;;;;;;;0.20;0.20;;;;;;;20.44;39.43;100415.59;4937045;29;20094;-88
2024/03/28 09:47:32;;;;;;;0.20;0.20;;;;;;;20.44;37.82;100431.34;4953699;29;20490;-90
2024/03/28 09:49:57;;;;;;;0.20;0.20;;;;;;;20.12;38.30;100401.97;4937839;29;20059;-88
2024/03/28 09:52:23;;;;;;;0.20;0.20;;;;;;;20.17;38.16;100418.97;4936119;29;20553;-85
2024/03/28 09:54:49;;;;;;;0.20;0.20;;;;;;;20.18;39.20;100420.63;4936747;29;20510;-86
2024/03/28 09:57:14;;;;;;;0.20;0.20;;;;;;;20.19;38.51;100422.28;4952375;29;20408;-84
2024/03/28 09:59:40;;;;;;;0.20;0.20;;;;;;;20.17;40.97;100428.66;4939379;29;20039;-91
2024/03/28 10:02:18;;;;;;;0.20;0.20;;;;;;;19.92;39.41;100419.56;4955194;29;20031;-92
2024/03/28 10:04:44;;;;;;;0.20;0.20;;;;;;;19.84;39.18;100429.91;4954216;28;20512;-85
2024/03/28 10:07:10;;;;;;;0.20;0.20;;;;;;;19.68;43.54;100444.44;4953173;29;20042;-89
2024/03/28 10:09:36;;;;;;;0.20;0.20;;;;;;;19.54;42.11;100438.72;4938472;29;20035;-86
2024/03/28 10:12:14;;;;;;;0.20;0.20;;;;;;;19.54;43.77;100439.56;4955240;29;20622;-89
2024/03/28 10:14:42;;;;;;;0.30;0.30;;;;;;;19.56;42.24;100434.19;4968314;28;20059;-87
2024/03/28 10:17:10;;;;;;;0.20;0.20;;;;;;;20.04;41.51;100434.19;4950279;29;20054;-85
2024/03/28 10:19:39;;;;;;;0.20;0.20;;;;;;;20.36;40.28;100425.16;4952853;29;20027;-88
2024/03/28 10:22:12;;;;;;;0.20;0.20;;;;;;;20.80;39.25;100426.25;4950728;29;20466;-86
2024/03/28 10:24:38;;;;;;;0.20;0.20;;;;;;;21.07;38.73;100420.16;4968519;28;20094;-87
2024/03/28 10:27:15;;;;;;;0.20;0.20;;;;;;;21.24;37.29;100418.50;4937086;29;20056;-91
2024/03/28 10:30:01;;;;;;;0.20;0.20;;;;;;;21.10;36.44;100407.53;4952939;29;20028;-87
2024/03/28 10:32:27;;;;;;;0.20;0.20;;;;;;;21.13;37.20;100404.59;4950336;29;20437;-91
2024/03/28 10:34:53;;;;;;;0.20;0.20;;;;;;;20.85;36.41;100409.06;4951344;29;20031;-89
2024/03/28 10:37:19;;;;;;;0.20;0.20;;;;;;;20.98;35.80;100400.00;4951128;29;20113;-85
2024/03/28 10:39:46;;;;;;;0.20;0.20;;;;;;;21.25;35.64;100394.72;4953313;28;20509;-91
2024/03/28 10:42:13;;;;;;;0.20;0.20;;;;;;;21.52;37.65;100390.38;4928448;29;20565;-90
2024/03/28 10:44:39;;;;;;;0.20;0.20;;;;;;;21.52;36.85;100374.56;4948521;28;20046;-87
2024/03/28 10:47:06;;;;;;;0.20;0.20;;;;;;;21.78;37.11;100396.50;4952589;29;20039;-92
2024/03/28 10:49:47;;;;;;;0.20;0.20;;;;;;;22.02;36.84;100374.78;4938174;29;20483;-90
2024/03/28 10:52:35;;;;;;;0.20;0.20;;;;;;;22.19;34.90;100370.47;4937923;29;20032;-86
2024/03/28 10:55:04;;;;;;;0.20;0.20;;;;;;;22.49;33.77;100395.50;4932856;29;20035;-88
2024/03/28 10:57:32;;;;;;;0.20;0.20;;;;;;;22.56;32.84;100400.00;4932692;29;20126;-90
2024/03/28 10:59:58;;;;;;;0.20;0.20;;;;;;;22.51;33.15;100383.81;4936539;29;20019;-89
2024/03/28 11:02:27;;;;;;;0.20;0.20;;;;;;;22.40;32.90;100397.28;4942018;29;20038;-90
2024/03/28 11:04:56;;;;;;;0.20;0.20;;;;;;;22.19;31.70;100376.56;4951803;28;20094;-90
2024/03/28 11:07:21;;;;;;;0.20;0.20;;;;;;;22.45;32.59;100389.72;4940416;29;20094;-90
2024/03/28 11:09:50;;;;;;;0.20;0.20;;;;;;;22.65;33.35;100373.66;4936643;29;20038;-85
2024/03/28 11:12:15;;;;;;;0.20;0.20;;;;;;;22.83;33.00;100406.03;4951526;29;20027;-88
2024/03/28 11:14:53;;;;;;;0.20;0.20;;;;;;;22.72;33.46;100393.16;4952465;29;20062;-89
2024/03/28 11:17:19;;;;;;;0.20;0.20;;;;;;;22.99;32.03;100403.47;4951891;29;20027;-85
2024/03/28 11:19:45;;;;;;;0.20;0.20;;;;;;;23.07;33.07;100390.31;4952281;29;20054;-94
2024/03/28 11:22:11;;;;;;;0.20;0.20;;;;;;;22.99;30.98;100414.03;4949385;28;20035;-92
2024/03/28 11:25:28;;;;;;;0.20;0.20;;;;;;;22.85;31.20;100410.19;5086420;27;1542618;-92
2024/03/28 11:28:03;;;;;;;0.20;0.20;;;;;;;22.87;31.93;100416.13;5106182;28;20028;-84
2024/03/28 11:30:29;;;;;;;0.20;0.20;;;;;;;22.67;30.21;100396.25;5122910;28;20027;-86